Time;durP1;ratioP1;P1;durP2;ratioP2;P2;SDS_P1;SDS_P2;PMS_P1;PMS_P2;Temp;Humidity;BMP_temperature;BMP_pressure;BME280_temperature;BME280_humidity;BME280_pressure;Samples;Min_cycle;Max_cycle;Signal;HPM_P1;HPM_P2
2023/12/04 06:02:21;;;;;;;29.00;13.30;;;;;;;;;;5037034;23;20600;-76
2023/12/04 06:04:47;;;;;;;31.90;12.33;;;;;;;;;;4936941;29;20421;-75
2023/12/04 06:07:13;;;;;;;25.67;12.10;;;;;;;;;;4936755;29;20414;-75
2023/12/04 06:09:39;;;;;;;36.00;14.07;;;;;;;;;;4935393;29;20516;-75
2023/12/04 06:12:08;;;;;;;35.50;13.40;;;;;;;;;;4936575;29;20465;-75
2023/12/04 06:14:34;;;;;;;34.67;14.63;;;;;;;;;;4937163;29;20418;-75
2023/12/04 06:17:01;;;;;;;34.67;14.70;;;;;;;;;;4935110;29;20430;-75
2023/12/04 06:19:29;;;;;;;34.23;14.30;;;;;;;;;;4936585;29;20790;-75
2023/12/04 06:21:55;;;;;;;41.33;16.23;;;;;;;;;;4936653;29;20433;-75
2023/12/04 06:24:21;;;;;;;33.87;15.00;;;;;;;;;;4936611;29;20410;-75
2023/12/04 06:26:48;;;;;;;33.50;14.50;;;;;;;;;;4936361;29;20847;-75
2023/12/04 06:29:14;;;;;;;36.40;14.40;;;;;;;;;;4936240;29;20448;-75
2023/12/04 06:31:41;;;;;;;38.23;15.23;;;;;;;;;;4936212;29;20505;-75
2023/12/04 06:34:07;;;;;;;40.13;14.73;;;;;;;;;;4936289;29;20421;-75
2023/12/04 06:36:35;;;;;;;49.17;15.40;;;;;;;;;;4936160;29;20505;-75
2023/12/04 06:39:04;;;;;;;45.30;16.30;;;;;;;;;;4935951;29;20418;-75
2023/12/04 06:41:30;;;;;;;34.60;14.27;;;;;;;;;;4935912;29;20461;-75
2023/12/04 06:43:56;;;;;;;35.37;14.50;;;;;;;;;;4936207;29;20409;-75
2023/12/04 06:46:23;;;;;;;40.70;15.50;;;;;;;;;;4937540;29;20406;-74
2023/12/04 06:48:51;;;;;;;36.53;14.13;;;;;;;;;;4936291;29;20897;-74
2023/12/04 06:51:17;;;;;;;31.13;13.43;;;;;;;;;;4936042;29;20445;-75
2023/12/04 06:53:43;;;;;;;37.90;15.10;;;;;;;;;;4936288;29;20977;-75
2023/12/04 06:56:09;;;;;;;39.30;16.43;;;;;;;;;;4934804;29;20422;-75
2023/12/04 06:58:35;;;;;;;40.40;14.97;;;;;;;;;;4935697;29;20413;-75
2023/12/04 07:01:01;;;;;;;44.30;15.87;;;;;;;;;;4935394;29;20457;-75
2023/12/04 07:03:27;;;;;;;40.87;15.80;;;;;;;;;;4936042;29;20418;-75
2023/12/04 07:05:53;;;;;;;37.57;15.30;;;;;;;;;;4935815;29;20985;-75
2023/12/04 07:08:19;;;;;;;39.07;13.93;;;;;;;;;;4935367;29;20848;-75
2023/12/04 07:10:45;;;;;;;41.90;14.30;;;;;;;;;;4934225;29;20441;-74
2023/12/04 07:13:12;;;;;;;32.47;13.90;;;;;;;;;;4935545;29;20823;-74
2023/12/04 07:15:38;;;;;;;39.20;14.53;;;;;;;;;;4935803;29;20414;-75
2023/12/04 07:18:04;;;;;;;33.77;13.87;;;;;;;;;;4935647;29;20413;-74
2023/12/04 07:20:30;;;;;;;30.23;13.00;;;;;;;;;;4935894;29;20433;-74
2023/12/04 07:22:57;;;;;;;32.80;14.03;;;;;;;;;;4935516;29;20416;-74
2023/12/04 07:25:24;;;;;;;34.70;14.43;;;;;;;;;;4935456;29;20417;-75
2023/12/04 07:27:50;;;;;;;43.33;16.77;;;;;;;;;;4936255;29;20410;-74
2023/12/04 07:30:16;;;;;;;43.40;15.10;;;;;;;;;;4935311;29;20406;-75
2023/12/04 07:32:42;;;;;;;27.70;12.55;;;;;;;;;;4934704;29;20436;-73
2023/12/04 07:35:08;;;;;;;43.53;16.10;;;;;;;;;;4935046;29;20189;-73
2023/12/04 07:37:34;;;;;;;36.37;15.47;;;;;;;;;;4935165;29;20405;-72
2023/12/04 07:40:00;;;;;;;39.30;16.77;;;;;;;;;;4933818;29;20405;-75
2023/12/04 07:42:26;;;;;;;43.43;16.17;;;;;;;;;;4934179;29;20869;-75
2023/12/04 07:44:52;;;;;;;43.20;15.47;;;;;;;;;;4934805;29;20410;-74
2023/12/04 07:47:18;;;;;;;33.27;15.27;;;;;;;;;;4932991;29;20528;-75
2023/12/04 07:49:47;;;;;;;39.27;15.43;;;;;;;;;;4934495;29;20481;-77
2023/12/04 07:52:13;;;;;;;36.07;15.20;;;;;;;;;;4933694;29;20461;-77
2023/12/04 07:54:39;;;;;;;42.80;15.40;;;;;;;;;;4935318;29;20432;-77
2023/12/04 07:57:05;;;;;;;40.90;15.00;;;;;;;;;;4935394;29;20976;-77
2023/12/04 07:59:31;;;;;;;43.07;16.07;;;;;;;;;;4938216;29;20414;-76
2023/12/04 08:01:57;;;;;;;34.77;15.63;;;;;;;;;;4944044;29;20468;-76
2023/12/04 08:04:23;;;;;;;37.20;15.00;;;;;;;;;;4945993;29;20418;-76
2023/12/04 08:06:50;;;;;;;36.70;15.40;;;;;;;;;;4946553;29;20410;-76
2023/12/04 08:09:16;;;;;;;43.00;15.80;;;;;;;;;;4941389;29;20441;-76
2023/12/04 08:11:42;;;;;;;42.77;15.93;;;;;;;;;;4936084;29;20449;-77
2023/12/04 08:14:08;;;;;;;36.53;15.50;;;;;;;;;;4941073;29;20932;-75
2023/12/04 08:16:34;;;;;;;40.83;16.70;;;;;;;;;;4941446;29;20455;-77
2023/12/04 08:19:00;;;;;;;32.33;16.03;;;;;;;;;;4941185;29;20413;-78
2023/12/04 08:21:26;;;;;;;39.77;14.73;;;;;;;;;;4939773;29;20842;-77
2023/12/04 08:23:52;;;;;;;33.00;13.53;;;;;;;;;;4940051;29;20444;-77
2023/12/04 08:26:25;;;;;;;36.80;14.53;;;;;;;;;;4940818;29;20444;-72
2023/12/04 08:28:51;;;;;;;37.97;14.97;;;;;;;;;;4940622;29;20833;-76
2023/12/04 08:31:17;;;;;;;32.70;12.90;;;;;;;;;;4939767;29;20452;-75
2023/12/04 08:33:43;;;;;;;36.07;14.80;;;;;;;;;;4940579;29;20465;-77
2023/12/04 08:36:10;;;;;;;44.53;14.13;;;;;;;;;;4940870;29;20417;-75
2023/12/04 08:38:36;;;;;;;39.50;15.37;;;;;;;;;;4940569;29;20410;-74
2023/12/04 08:41:02;;;;;;;41.67;13.60;;;;;;;;;;4940552;29;20441;-76
2023/12/04 08:43:28;;;;;;;35.10;14.63;;;;;;;;;;4940554;29;20924;-75
2023/12/04 08:45:54;;;;;;;44.83;14.03;;;;;;;;;;4940854;29;20425;-74
2023/12/04 08:48:20;;;;;;;35.03;13.70;;;;;;;;;;4940545;29;20449;-76
2023/12/04 08:50:47;;;;;;;34.13;13.37;;;;;;;;;;4939794;29;20516;-77
2023/12/04 08:53:13;;;;;;;34.23;14.10;;;;;;;;;;4941577;29;20524;-78
2023/12/04 08:55:39;;;;;;;33.50;12.70;;;;;;;;;;4941703;29;20928;-77
2023/12/04 08:58:05;;;;;;;32.33;12.47;;;;;;;;;;4941799;29;20523;-76
2023/12/04 09:00:31;;;;;;;34.40;12.90;;;;;;;;;;4941049;29;20483;-77
2023/12/04 09:02:57;;;;;;;28.30;12.00;;;;;;;;;;4940677;29;20929;-76
2023/12/04 09:05:23;;;;;;;32.57;13.73;;;;;;;;;;4939723;29;20428;-74
2023/12/04 09:07:49;;;;;;;30.60;14.03;;;;;;;;;;4941055;29;20436;-76
2023/12/04 09:10:15;;;;;;;34.63;12.23;;;;;;;;;;4940901;29;20425;-76
2023/12/04 09:12:41;;;;;;;28.33;12.57;;;;;;;;;;4940818;29;20465;-76
2023/12/04 09:15:07;;;;;;;30.67;11.83;;;;;;;;;;4940812;29;20418;-76
2023/12/04 09:17:33;;;;;;;30.17;14.07;;;;;;;;;;4940653;29;20716;-75
2023/12/04 09:19:59;;;;;;;28.70;13.83;;;;;;;;;;4941835;29;20912;-76
2023/12/04 09:22:25;;;;;;;31.77;12.93;;;;;;;;;;4941571;29;20729;-75
2023/12/04 09:24:51;;;;;;;35.77;14.60;;;;;;;;;;4938175;29;20436;-76
2023/12/04 09:27:17;;;;;;;25.83;12.80;;;;;;;;;;4938332;29;20472;-76
2023/12/04 09:29:43;;;;;;;31.07;12.30;;;;;;;;;;4938500;29;20479;-76
2023/12/04 09:32:10;;;;;;;27.80;12.80;;;;;;;;;;4937629;29;20453;-75
2023/12/04 09:34:36;;;;;;;33.20;13.70;;;;;;;;;;4938003;29;20761;-77
2023/12/04 09:37:02;;;;;;;30.93;12.80;;;;;;;;;;4937842;29;20424;-76
2023/12/04 09:39:28;;;;;;;34.80;16.50;;;;;;;;;;4936600;29;20432;-76
2023/12/04 09:41:55;;;;;;;35.90;14.37;;;;;;;;;;4932479;29;20467;-77
2023/12/04 09:44:22;;;;;;;46.47;14.10;;;;;;;;;;4936755;29;20442;-76
2023/12/04 09:46:48;;;;;;;32.43;13.60;;;;;;;;;;4936205;29;20413;-76
2023/12/04 09:49:16;;;;;;;34.53;13.83;;;;;;;;;;4937671;29;20429;-76
2023/12/04 09:51:42;;;;;;;32.63;13.73;;;;;;;;;;4937494;29;20437;-77
2023/12/04 09:54:08;;;;;;;43.10;14.10;;;;;;;;;;4940706;29;20475;-76
2023/12/04 09:56:34;;;;;;;31.33;14.17;;;;;;;;;;4938938;29;20421;-76
2023/12/04 09:59:01;;;;;;;33.20;13.53;;;;;;;;;;4947126;29;20417;-77
2023/12/04 10:01:29;;;;;;;28.67;13.63;;;;;;;;;;4948339;29;20512;-76
2023/12/04 10:03:57;;;;;;;37.60;14.60;;;;;;;;;;4949348;29;20472;-76
2023/12/04 10:06:24;;;;;;;41.27;13.90;;;;;;;;;;4947525;29;20413;-77
2023/12/04 10:08:50;;;;;;;45.60;14.37;;;;;;;;;;4946211;29;20429;-77
2023/12/04 10:11:16;;;;;;;42.80;15.10;;;;;;;;;;4943165;29;20925;-76
2023/12/04 10:13:42;;;;;;;36.70;14.03;;;;;;;;;;4942252;29;20476;-77
2023/12/04 10:16:08;;;;;;;32.80;14.17;;;;;;;;;;4936464;29;20415;-75
2023/12/04 10:18:34;;;;;;;31.77;13.10;;;;;;;;;;4937061;29;20422;-75
2023/12/04 10:21:02;;;;;;;32.00;13.00;;;;;;;;;;4937221;29;20429;-76
2023/12/04 10:23:46;;;;;;;40.33;14.47;;;;;;;;;;4937473;29;20528;-76
2023/12/04 10:26:15;;;;;;;27.50;11.97;;;;;;;;;;4937524;29;20425;-76
2023/12/04 10:28:59;;;;;;;27.83;12.00;;;;;;;;;;4937040;29;20428;-75
2023/12/04 10:31:25;;;;;;;25.90;12.93;;;;;;;;;;4938852;29;20460;-75
2023/12/04 10:33:51;;;;;;;28.13;12.20;;;;;;;;;;4937890;29;20465;-76
2023/12/04 10:36:19;;;;;;;29.83;12.40;;;;;;;;;;4936060;29;20419;-76
2023/12/04 10:38:45;;;;;;;32.53;13.30;;;;;;;;;;4936827;29;20930;-73
2023/12/04 10:41:14;;;;;;;40.43;12.87;;;;;;;;;;4936146;29;20441;-74
2023/12/04 10:43:48;;;;;;;38.30;15.00;;;;;;;;;;4936021;29;20924;-72
2023/12/04 10:46:18;;;;;;;26.63;13.03;;;;;;;;;;4935943;29;20496;-76
2023/12/04 10:48:47;;;;;;;25.80;13.10;;;;;;;;;;4935278;29;20795;-74
2023/12/04 10:51:14;;;;;;;37.27;13.30;;;;;;;;;;4936202;29;20433;-76
2023/12/04 10:53:42;;;;;;;31.87;12.57;;;;;;;;;;4934664;29;20473;-75
2023/12/04 10:56:09;;;;;;;26.37;11.30;;;;;;;;;;4935771;29;20406;-75
2023/12/04 10:58:37;;;;;;;24.20;11.40;;;;;;;;;;4935251;29;20538;-75
2023/12/04 11:01:03;;;;;;;27.13;12.90;;;;;;;;;;4935527;29;20835;-75
2023/12/04 11:03:31;;;;;;;27.47;12.50;;;;;;;;;;4934504;29;20434;-76
2023/12/04 11:06:00;;;;;;;21.77;11.40;;;;;;;;;;4934117;29;20465;-75
2023/12/04 11:08:30;;;;;;;23.70;11.30;;;;;;;;;;4935532;29;20452;-78
2023/12/04 11:10:56;;;;;;;24.60;11.90;;;;;;;;;;4935385;29;20449;-76
2023/12/04 11:13:24;;;;;;;25.07;11.07;;;;;;;;;;4935278;29;20560;-76
2023/12/04 11:15:52;;;;;;;17.27;9.73;;;;;;;;;;4935088;29;20429;-77
2023/12/04 11:18:21;;;;;;;25.63;10.60;;;;;;;;;;4935257;29;20873;-75
2023/12/04 11:20:51;;;;;;;24.60;11.70;;;;;;;;;;4935440;29;20438;-77
2023/12/04 11:23:17;;;;;;;31.47;11.47;;;;;;;;;;4935454;29;20421;-73
2023/12/04 11:25:44;;;;;;;20.73;10.47;;;;;;;;;;4935140;29;20420;-75
2023/12/04 11:28:11;;;;;;;23.03;11.20;;;;;;;;;;4935128;29;20424;-74
2023/12/04 11:30:37;;;;;;;25.83;11.87;;;;;;;;;;4935285;29;20434;-76
2023/12/04 11:33:03;;;;;;;26.10;12.13;;;;;;;;;;4935415;29;20460;-75
2023/12/04 11:35:30;;;;;;;36.70;13.47;;;;;;;;;;4935529;29;20930;-75
2023/12/04 11:37:57;;;;;;;23.20;11.50;;;;;;;;;;4934661;29;20419;-75
2023/12/04 11:40:23;;;;;;;26.37;12.80;;;;;;;;;;4934970;29;20492;-75
2023/12/04 11:42:49;;;;;;;25.27;12.27;;;;;;;;;;4929474;29;20476;-75
2023/12/04 11:45:21;;;;;;;31.43;13.90;;;;;;;;;;4929592;29;20864;-75
2023/12/04 11:47:50;;;;;;;22.43;11.47;;;;;;;;;;4913592;29;20456;-74
2023/12/04 11:50:16;;;;;;;27.37;13.40;;;;;;;;;;4914937;29;20788;-75
2023/12/04 11:52:42;;;;;;;28.97;12.97;;;;;;;;;;4915058;29;20560;-75
2023/12/04 11:55:09;;;;;;;27.13;13.17;;;;;;;;;;4915341;29;20496;-75
2023/12/04 11:57:35;;;;;;;23.30;12.20;;;;;;;;;;4931052;29;20430;-74
2023/12/04 12:00:21;;;;;;;26.90;13.57;;;;;;;;;;4933344;29;20481;-74
2023/12/04 12:02:48;;;;;;;38.13;14.53;;;;;;;;;;4935069;29;20937;-73
2023/12/04 12:05:14;;;;;;;28.13;12.57;;;;;;;;;;4936688;29;20413;-74
2023/12/04 12:07:39;;;;;;;30.40;12.47;;;;;;;;;;4934804;29;20821;-75
2023/12/04 12:10:06;;;;;;;27.57;12.63;;;;;;;;;;4935587;29;20414;-75
2023/12/04 12:12:32;;;;;;;28.73;12.00;;;;;;;;;;4935084;29;20473;-74
2023/12/04 12:14:58;;;;;;;26.17;13.20;;;;;;;;;;4957902;23;20536;-77
2023/12/04 12:17:25;;;;;;;19.10;10.97;;;;;;;;;;4934958;29;20414;-75
2023/12/04 12:19:51;;;;;;;26.43;11.60;;;;;;;;;;4934394;29;20425;-77
2023/12/04 12:22:17;;;;;;;28.63;10.93;;;;;;;;;;4934558;29;20782;-77
2023/12/04 12:24:43;;;;;;;28.30;11.87;;;;;;;;;;4933002;29;20594;-77
2023/12/04 12:27:09;;;;;;;23.50;11.40;;;;;;;;;;4916816;29;20414;-75
2023/12/04 12:29:35;;;;;;;21.80;10.83;;;;;;;;;;4915135;29;20422;-76
2023/12/04 12:32:03;;;;;;;22.13;10.80;;;;;;;;;;4915313;29;20422;-76
2023/12/04 12:34:29;;;;;;;20.33;11.27;;;;;;;;;;4915455;29;20464;-78
2023/12/04 12:36:55;;;;;;;27.50;11.53;;;;;;;;;;4915781;29;20419;-78
2023/12/04 12:39:21;;;;;;;22.37;11.27;;;;;;;;;;4915293;29;20929;-76
2023/12/04 12:41:50;;;;;;;29.93;13.30;;;;;;;;;;4915878;29;20422;-79
2023/12/04 12:44:16;;;;;;;31.77;13.93;;;;;;;;;;4915239;29;20462;-77
2023/12/04 12:46:42;;;;;;;42.07;13.33;;;;;;;;;;4928195;29;20409;-76
2023/12/04 12:49:08;;;;;;;38.77;13.90;;;;;;;;;;4932897;29;20781;-76
2023/12/04 12:51:34;;;;;;;38.73;16.33;;;;;;;;;;4934866;29;20505;-75
2023/12/04 12:54:00;;;;;;;38.43;14.93;;;;;;;;;;4934127;29;20469;-76
2023/12/04 12:56:26;;;;;;;40.10;17.40;;;;;;;;;;4933650;29;20429;-76
2023/12/04 12:58:53;;;;;;;31.33;14.57;;;;;;;;;;4935926;29;20417;-75
2023/12/04 13:01:20;;;;;;;34.03;15.00;;;;;;;;;;4938267;29;20425;-76
2023/12/04 13:03:47;;;;;;;28.53;14.43;;;;;;;;;;4943708;29;20421;-75
2023/12/04 13:06:13;;;;;;;39.57;15.60;;;;;;;;;;4938156;29;20464;-75
2023/12/04 13:08:39;;;;;;;36.63;16.30;;;;;;;;;;4937620;29;20412;-73
2023/12/04 13:11:05;;;;;;;40.73;16.83;;;;;;;;;;4938022;29;20428;-76
2023/12/04 13:13:32;;;;;;;43.10;17.20;;;;;;;;;;4937147;29;20492;-75
2023/12/04 13:15:58;;;;;;;38.03;16.90;;;;;;;;;;4936999;29;20453;-75
2023/12/04 13:18:24;;;;;;;33.53;16.13;;;;;;;;;;4937045;29;20420;-75
2023/12/04 13:20:50;;;;;;;36.93;17.03;;;;;;;;;;4932895;29;20493;-76
2023/12/04 13:23:16;;;;;;;40.57;19.87;;;;;;;;;;4917043;29;20957;-75
2023/12/04 13:25:43;;;;;;;38.97;16.33;;;;;;;;;;4918250;29;20938;-75
2023/12/04 13:28:09;;;;;;;34.73;16.43;;;;;;;;;;4918109;29;20478;-76
2023/12/04 13:30:36;;;;;;;40.00;18.40;;;;;;;;;;4918044;29;20425;-76
2023/12/04 13:33:02;;;;;;;41.70;17.60;;;;;;;;;;4917777;29;20478;-75
2023/12/04 13:35:28;;;;;;;40.90;17.57;;;;;;;;;;4918378;29;20434;-73
2023/12/04 13:37:56;;;;;;;35.73;17.47;;;;;;;;;;4936652;29;20439;-73
2023/12/04 13:40:26;;;;;;;39.90;18.30;;;;;;;;;;4937334;29;20838;-73
2023/12/04 13:45:37;;;;;;;40.70;17.10;;;;;;;;;;4921852;29;21014;-73
2023/12/04 13:48:03;;;;;;;39.40;18.00;;;;;;;;;;4935688;29;20413;-75
2023/12/04 13:50:29;;;;;;;30.10;15.23;;;;;;;;;;4936457;29;20405;-75
2023/12/04 13:52:56;;;;;;;35.97;18.47;;;;;;;;;;4938321;29;20519;-74
2023/12/04 13:55:42;;;;;;;37.77;18.57;;;;;;;;;;4935918;29;20495;-74
2023/12/04 13:58:36;;;;;;;42.77;17.93;;;;;;;;;;4943318;29;20418;-74
2023/12/04 14:00:57;;;;;;;36.70;16.23;;;;;;;;;;4943772;29;20939;-74
2023/12/04 14:03:23;;;;;;;35.93;16.20;;;;;;;;;;4942309;29;20492;-75
2023/12/04 14:05:49;;;;;;;40.97;17.30;;;;;;;;;;4939429;29;20453;-75
2023/12/04 14:08:15;;;;;;;44.53;16.60;;;;;;;;;;4936756;29;20446;-75
2023/12/04 14:10:41;;;;;;;38.17;16.47;;;;;;;;;;4935688;29;20952;-75
2023/12/04 14:13:07;;;;;;;35.60;17.23;;;;;;;;;;4935019;29;20481;-75
2023/12/04 14:15:33;;;;;;;52.13;17.17;;;;;;;;;;4936547;29;20453;-75
2023/12/04 14:17:59;;;;;;;37.27;16.33;;;;;;;;;;4936017;29;20549;-74
2023/12/04 14:20:26;;;;;;;50.00;17.63;;;;;;;;;;4936135;29;20413;-74
2023/12/04 14:22:52;;;;;;;52.00;19.50;;;;;;;;;;4934456;29;20433;-75
2023/12/04 14:25:17;;;;;;;41.60;17.27;;;;;;;;;;4936120;29;20520;-74
2023/12/04 14:27:44;;;;;;;42.90;15.03;;;;;;;;;;4920054;29;20513;-78
2023/12/04 14:30:11;;;;;;;45.00;17.50;;;;;;;;;;4917441;29;20426;-77
2023/12/04 14:32:37;;;;;;;52.77;17.90;;;;;;;;;;4917378;29;20846;-77
2023/12/04 14:35:04;;;;;;;40.57;18.13;;;;;;;;;;4916927;29;20491;-74
2023/12/04 14:37:30;;;;;;;45.13;18.03;;;;;;;;;;4917201;29;20455;-75
2023/12/04 14:39:56;;;;;;;42.60;17.20;;;;;;;;;;4917310;29;20415;-74
2023/12/04 14:42:22;;;;;;;61.00;18.20;;;;;;;;;;4928920;29;20433;-75
2023/12/04 14:44:48;;;;;;;43.50;18.67;;;;;;;;;;4934596;29;20512;-75
2023/12/04 14:47:14;;;;;;;42.03;17.83;;;;;;;;;;4935803;29;20429;-74
2023/12/04 14:49:40;;;;;;;41.73;17.60;;;;;;;;;;4936045;29;20444;-71
2023/12/04 14:52:07;;;;;;;45.37;19.70;;;;;;;;;;4935166;29;20435;-71
2023/12/04 15:19:00;;;;;;;47.20;19.13;;;;;;;;;;4916228;29;20426;-75
2023/12/04 15:21:25;;;;;;;47.20;18.23;;;;;;;;;;4916020;29;20423;-74
2023/12/04 15:23:51;;;;;;;53.70;19.77;;;;;;;;;;4916690;29;20788;-74
2023/12/04 15:26:17;;;;;;;54.87;21.67;;;;;;;;;;4915680;29;20525;-74
2023/12/04 15:28:43;;;;;;;48.60;20.17;;;;;;;;;;4934818;29;20901;-74
2023/12/04 15:31:10;;;;;;;53.23;19.37;;;;;;;;;;4935306;29;20413;-76
2023/12/04 15:33:36;;;;;;;50.37;21.87;;;;;;;;;;4934876;29;20983;-74
2023/12/04 15:36:02;;;;;;;53.10;20.00;;;;;;;;;;4935447;29;20532;-75
2023/12/04 15:38:29;;;;;;;49.77;21.00;;;;;;;;;;4912810;29;20430;-74
2023/12/04 15:40:56;;;;;;;54.77;21.40;;;;;;;;;;4896906;29;20501;-75
2023/12/04 15:43:22;;;;;;;45.70;18.67;;;;;;;;;;4926778;29;20426;-75
2023/12/04 15:45:48;;;;;;;52.37;19.70;;;;;;;;;;4922929;29;20457;-75
2023/12/04 15:48:14;;;;;;;43.83;19.47;;;;;;;;;;4916787;29;20419;-77
2023/12/04 15:50:40;;;;;;;51.57;20.40;;;;;;;;;;4914899;29;20899;-76
2023/12/04 15:53:06;;;;;;;48.87;20.53;;;;;;;;;;4916129;29;20461;-75
2023/12/04 15:55:31;;;;;;;46.27;19.93;;;;;;;;;;4910168;29;20507;-75
2023/12/04 15:57:57;;;;;;;60.57;19.93;;;;;;;;;;4909481;29;20916;-75
2023/12/04 16:00:27;;;;;;;48.90;22.17;;;;;;;;;;4915591;29;20425;-75
2023/12/04 16:02:54;;;;;;;59.07;22.33;;;;;;;;;;4915705;29;20423;-75
2023/12/04 16:05:20;;;;;;;45.77;18.40;;;;;;;;;;4915616;29;20525;-75
2023/12/04 16:07:48;;;;;;;49.77;21.87;;;;;;;;;;4914320;29;20427;-75
2023/12/04 16:10:17;;;;;;;51.90;22.40;;;;;;;;;;4915645;29;20926;-76
2023/12/04 16:12:43;;;;;;;57.27;21.73;;;;;;;;;;4915422;29;20887;-75
2023/12/04 16:15:09;;;;;;;44.40;19.80;;;;;;;;;;4915273;29;20450;-75
2023/12/04 16:17:35;;;;;;;41.90;20.97;;;;;;;;;;4916686;29;20422;-75
2023/12/04 16:20:14;;;;;;;64.67;22.37;;;;;;;;;;4917219;29;20441;-75
2023/12/04 16:22:42;;;;;;;56.97;22.03;;;;;;;;;;4938538;29;20418;-74
2023/12/04 16:25:09;;;;;;;56.77;20.93;;;;;;;;;;4934719;29;20437;-74
2023/12/04 16:27:35;;;;;;;56.23;23.30;;;;;;;;;;4934569;29;20426;-74
2023/12/04 16:30:01;;;;;;;48.83;19.37;;;;;;;;;;4934840;29;20468;-75
2023/12/04 16:32:28;;;;;;;45.70;21.77;;;;;;;;;;4934235;29;20491;-74
2023/12/04 16:34:54;;;;;;;45.70;19.13;;;;;;;;;;4912372;29;21138;-73
2023/12/04 16:37:20;;;;;;;46.40;19.40;;;;;;;;;;4906080;29;20423;-74
2023/12/04 16:39:46;;;;;;;49.10;20.77;;;;;;;;;;4918538;29;20415;-73
2023/12/04 16:42:12;;;;;;;53.33;20.93;;;;;;;;;;4919231;29;20419;-71
2023/12/04 16:44:38;;;;;;;49.63;20.47;;;;;;;;;;4917502;29;20445;-73
2023/12/04 16:47:04;;;;;;;47.53;18.97;;;;;;;;;;4918998;29;20410;-72
2023/12/04 16:49:30;;;;;;;56.70;21.33;;;;;;;;;;4908925;29;20427;-72
2023/12/04 16:51:56;;;;;;;52.20;20.80;;;;;;;;;;4900149;29;20423;-72
2023/12/04 16:54:22;;;;;;;50.43;19.33;;;;;;;;;;4916708;29;20502;-72
2023/12/04 16:56:49;;;;;;;48.27;19.73;;;;;;;;;;4916450;29;20548;-74
2023/12/04 16:59:15;;;;;;;53.30;21.20;;;;;;;;;;4905815;29;20422;-72
2023/12/04 17:01:41;;;;;;;47.33;19.43;;;;;;;;;;4918821;29;20414;-71
2023/12/04 17:04:07;;;;;;;50.97;20.17;;;;;;;;;;4918890;29;20746;-74
2023/12/04 17:06:33;;;;;;;47.00;19.77;;;;;;;;;;4918811;29;20421;-74
2023/12/04 17:08:59;;;;;;;50.33;19.20;;;;;;;;;;4917754;29;20415;-74
2023/12/04 17:11:25;;;;;;;51.47;20.80;;;;;;;;;;4902952;29;20439;-74
2023/12/04 17:13:51;;;;;;;50.23;20.77;;;;;;;;;;4904315;29;20503;-74
2023/12/04 17:16:18;;;;;;;52.40;21.40;;;;;;;;;;4903206;29;20482;-74
2023/12/04 17:18:44;;;;;;;51.87;19.77;;;;;;;;;;4900258;29;20427;-74
2023/12/04 17:21:12;;;;;;;59.47;20.63;;;;;;;;;;4905757;29;20927;-74
2023/12/04 17:23:38;;;;;;;76.43;22.43;;;;;;;;;;4901111;29;20422;-75
2023/12/04 17:26:04;;;;;;;47.57;19.87;;;;;;;;;;4899672;29;20444;-74
2023/12/04 17:28:30;;;;;;;51.93;20.20;;;;;;;;;;4899101;29;20423;-74
2023/12/04 17:30:55;;;;;;;48.93;18.33;;;;;;;;;;4899154;29;20415;-74
2023/12/04 17:33:21;;;;;;;50.60;17.50;;;;;;;;;;4899112;29;20467;-75
2023/12/04 17:35:47;;;;;;;50.30;20.37;;;;;;;;;;4899479;29;20519;-74
2023/12/04 17:38:13;;;;;;;49.60;20.10;;;;;;;;;;4899030;29;20420;-74
2023/12/04 17:40:39;;;;;;;49.23;20.27;;;;;;;;;;4908539;29;20944;-74
2023/12/04 17:43:06;;;;;;;54.00;20.57;;;;;;;;;;4918470;29;20803;-74
2023/12/04 17:45:33;;;;;;;47.20;18.87;;;;;;;;;;4916826;29;20431;-74
2023/12/04 17:48:00;;;;;;;51.00;20.53;;;;;;;;;;4917718;29;20752;-74
2023/12/04 17:50:26;;;;;;;50.27;20.43;;;;;;;;;;4917937;29;20421;-74
2023/12/04 17:52:52;;;;;;;44.60;20.57;;;;;;;;;;4916580;29;20856;-74
2023/12/04 17:55:24;;;;;;;53.13;21.17;;;;;;;;;;4917814;29;20918;-74
2023/12/04 17:57:50;;;;;;;52.80;21.27;;;;;;;;;;4917602;29;20474;-74
2023/12/04 18:00:18;;;;;;;51.27;19.30;;;;;;;;;;4917727;29;20411;-70
2023/12/04 18:02:45;;;;;;;65.73;21.50;;;;;;;;;;4916502;29;20510;-70
2023/12/04 18:05:12;;;;;;;48.50;20.67;;;;;;;;;;4917617;29;20439;-70
2023/12/04 18:07:38;;;;;;;54.20;20.57;;;;;;;;;;4915817;29;20426;-72
2023/12/04 18:10:05;;;;;;;59.87;22.37;;;;;;;;;;4917830;29;20925;-71
2023/12/04 18:12:31;;;;;;;55.20;21.00;;;;;;;;;;4915761;29;20514;-75
2023/12/04 18:14:57;;;;;;;43.10;19.57;;;;;;;;;;4947912;23;20996;-75
2023/12/04 18:17:23;;;;;;;52.50;20.70;;;;;;;;;;4944409;29;20421;-76
2023/12/04 18:19:53;;;;;;;48.83;20.90;;;;;;;;;;4931982;29;20462;-75
2023/12/04 18:22:19;;;;;;;54.17;22.73;;;;;;;;;;4936158;29;20432;-75
2023/12/04 18:24:45;;;;;;;53.10;20.40;;;;;;;;;;4930377;29;21001;-75
2023/12/04 18:27:11;;;;;;;44.03;20.70;;;;;;;;;;4917436;29;20429;-75
2023/12/04 18:29:37;;;;;;;54.27;21.87;;;;;;;;;;4912744;29;20442;-75
2023/12/04 18:32:04;;;;;;;61.23;23.90;;;;;;;;;;4915045;29;20419;-75
2023/12/04 18:34:31;;;;;;;57.70;22.40;;;;;;;;;;4917069;29;20449;-75
2023/12/04 18:37:01;;;;;;;60.17;23.80;;;;;;;;;;4917034;29;20850;-75
2023/12/04 18:39:29;;;;;;;60.03;23.27;;;;;;;;;;4916157;29;20417;-75
2023/12/04 18:41:56;;;;;;;57.90;22.87;;;;;;;;;;4916634;29;20501;-75
2023/12/04 18:44:22;;;;;;;59.73;24.03;;;;;;;;;;4911225;29;20442;-73
2023/12/04 18:46:49;;;;;;;60.93;21.97;;;;;;;;;;4916942;29;20886;-74
2023/12/04 18:49:16;;;;;;;57.97;23.80;;;;;;;;;;4916756;29;20415;-73
2023/12/04 18:51:42;;;;;;;53.57;23.10;;;;;;;;;;4917066;29;20466;-74
2023/12/04 18:54:08;;;;;;;54.80;20.23;;;;;;;;;;4916093;29;20839;-74
2023/12/04 18:56:34;;;;;;;48.97;21.67;;;;;;;;;;4914633;29;20426;-74
2023/12/04 18:59:01;;;;;;;59.93;22.70;;;;;;;;;;4916567;29;20426;-73
2023/12/04 19:01:27;;;;;;;53.53;22.60;;;;;;;;;;4917073;29;20411;-74
2023/12/04 19:03:53;;;;;;;58.23;23.17;;;;;;;;;;4916848;29;20430;-71
2023/12/04 19:06:19;;;;;;;60.30;21.63;;;;;;;;;;4908144;29;20443;-73
2023/12/04 19:08:45;;;;;;;61.97;21.97;;;;;;;;;;4916131;29;20513;-71
2023/12/04 19:11:11;;;;;;;55.97;22.90;;;;;;;;;;4916272;29;20423;-73
2023/12/04 19:13:37;;;;;;;49.53;20.30;;;;;;;;;;4908596;29;20466;-72
2023/12/04 19:16:04;;;;;;;49.90;20.37;;;;;;;;;;4908015;29;20459;-74
2023/12/04 19:18:30;;;;;;;47.67;18.20;;;;;;;;;;4914157;29;21005;-73
2023/12/04 19:20:56;;;;;;;48.53;20.90;;;;;;;;;;4924067;29;20416;-73
2023/12/04 19:23:22;;;;;;;46.20;19.27;;;;;;;;;;4916575;29;20514;-73
2023/12/04 19:25:48;;;;;;;55.30;22.27;;;;;;;;;;4911469;29;20474;-73
2023/12/04 19:28:14;;;;;;;53.30;21.33;;;;;;;;;;4913411;29;20426;-76
2023/12/04 19:30:40;;;;;;;47.53;20.10;;;;;;;;;;4916110;29;20422;-73
2023/12/04 19:33:06;;;;;;;50.23;22.10;;;;;;;;;;4915942;29;20557;-73
2023/12/04 19:35:32;;;;;;;52.17;20.50;;;;;;;;;;4922343;29;20437;-72
2023/12/04 19:37:58;;;;;;;44.67;18.47;;;;;;;;;;4927877;29;20410;-73
2023/12/04 19:40:25;;;;;;;44.73;19.70;;;;;;;;;;4913875;29;20427;-74
2023/12/04 19:42:51;;;;;;;57.17;20.23;;;;;;;;;;4904864;29;20431;-75
2023/12/04 19:45:17;;;;;;;46.60;20.07;;;;;;;;;;4911340;29;20470;-74
2023/12/04 19:47:43;;;;;;;53.00;21.67;;;;;;;;;;4916114;29;20429;-74
2023/12/04 19:50:11;;;;;;;49.10;20.50;;;;;;;;;;4909072;29;20530;-73
2023/12/04 19:52:37;;;;;;;43.30;19.37;;;;;;;;;;4916639;29;20509;-72
2023/12/04 19:55:03;;;;;;;49.90;21.47;;;;;;;;;;4929630;29;20442;-76
2023/12/04 19:57:29;;;;;;;45.17;19.63;;;;;;;;;;4931137;29;20411;-74
2023/12/04 19:59:55;;;;;;;47.90;22.30;;;;;;;;;;4936506;29;20451;-74
2023/12/04 20:02:21;;;;;;;51.13;20.70;;;;;;;;;;4944376;29;20410;-76
2023/12/04 20:04:47;;;;;;;51.03;20.80;;;;;;;;;;4945160;29;20466;-75
2023/12/04 20:07:13;;;;;;;50.40;21.83;;;;;;;;;;4923118;29;20535;-71
2023/12/04 20:09:39;;;;;;;49.97;19.30;;;;;;;;;;4915228;29;20903;-72
2023/12/04 20:12:05;;;;;;;50.43;20.70;;;;;;;;;;4913698;29;20422;-72
2023/12/04 20:14:31;;;;;;;60.57;22.13;;;;;;;;;;4915671;29;20478;-71
2023/12/04 20:16:57;;;;;;;54.10;23.77;;;;;;;;;;4916267;29;20470;-71
2023/12/04 20:19:23;;;;;;;47.00;20.27;;;;;;;;;;4916153;29;20486;-71
2023/12/04 20:21:49;;;;;;;39.67;17.80;;;;;;;;;;4910888;29;20419;-71
2023/12/04 20:24:15;;;;;;;47.57;18.87;;;;;;;;;;4921984;29;20443;-71
2023/12/04 20:26:41;;;;;;;37.93;18.90;;;;;;;;;;4915964;29;20425;-71
2023/12/04 20:29:07;;;;;;;36.90;16.43;;;;;;;;;;4916049;29;20414;-72
2023/12/04 20:31:33;;;;;;;42.53;16.97;;;;;;;;;;4909878;29;20427;-71
2023/12/04 20:33:59;;;;;;;42.17;17.00;;;;;;;;;;4898028;29;20478;-74
2023/12/04 20:36:25;;;;;;;40.80;18.83;;;;;;;;;;4914168;29;20476;-74
2023/12/04 20:38:51;;;;;;;44.70;18.07;;;;;;;;;;4916176;29;20430;-73
2023/12/04 20:41:18;;;;;;;44.30;19.40;;;;;;;;;;4922422;29;20439;-75